sensor_id;sensor_type;location;lat;lon;timestamp;P1;durP1;ratioP1;P2;durP2;ratioP2
71965;SDS011;59836;52.132;5.442;2023-06-22T00:02:25;9.45;;;5.60;;
71965;SDS011;59836;52.132;5.442;2023-06-22T00:04:52;9.07;;;5.57;;
71965;SDS011;59836;52.132;5.442;2023-06-22T00:07:18;6.40;;;5.18;;
71965;SDS011;59836;52.132;5.442;2023-06-22T00:09:45;7.40;;;4.78;;
71965;SDS011;59836;52.132;5.442;2023-06-22T00:12:11;8.40;;;5.47;;
71965;SDS011;59836;52.132;5.442;2023-06-22T00:14:37;7.60;;;5.75;;
71965;SDS011;59836;52.132;5.442;2023-06-22T00:17:04;7.97;;;6.00;;
71965;SDS011;59836;52.132;5.442;2023-06-22T00:19:30;9.68;;;6.00;;
71965;SDS011;59836;52.132;5.442;2023-06-22T00:21:57;8.27;;;5.90;;
71965;SDS011;59836;52.132;5.442;2023-06-22T00:24:26;7.47;;;5.17;;
71965;SDS011;59836;52.132;5.442;2023-06-22T00:26:52;8.68;;;5.70;;
71965;SDS011;59836;52.132;5.442;2023-06-22T00:29:19;7.40;;;5.70;;
71965;SDS011;59836;52.132;5.442;2023-06-22T00:31:45;8.57;;;5.47;;
71965;SDS011;59836;52.132;5.442;2023-06-22T00:34:12;8.48;;;5.88;;
71965;SDS011;59836;52.132;5.442;2023-06-22T00:36:38;9.07;;;6.23;;
71965;SDS011;59836;52.132;5.442;2023-06-22T00:39:07;7.25;;;6.18;;
71965;SDS011;59836;52.132;5.442;2023-06-22T00:41:34;7.15;;;5.13;;
71965;SDS011;59836;52.132;5.442;2023-06-22T00:44:00;9.35;;;6.22;;
71965;SDS011;59836;52.132;5.442;2023-06-22T00:46:27;8.85;;;6.47;;
71965;SDS011;59836;52.132;5.442;2023-06-22T00:48:54;8.87;;;5.50;;
71965;SDS011;59836;52.132;5.442;2023-06-22T00:51:23;7.85;;;5.50;;
71965;SDS011;59836;52.132;5.442;2023-06-22T00:53:50;8.32;;;5.68;;
71965;SDS011;59836;52.132;5.442;2023-06-22T00:56:19;8.93;;;6.18;;
71965;SDS011;59836;52.132;5.442;2023-06-22T00:58:50;9.32;;;6.13;;
71965;SDS011;59836;52.132;5.442;2023-06-22T01:01:19;9.57;;;6.73;;
71965;SDS011;59836;52.132;5.442;2023-06-22T01:03:50;9.68;;;6.45;;
71965;SDS011;59836;52.132;5.442;2023-06-22T01:06:19;9.15;;;6.15;;
71965;SDS011;59836;52.132;5.442;2023-06-22T01:09:06;10.05;;;6.70;;
71965;SDS011;59836;52.132;5.442;2023-06-22T01:11:43;9.00;;;6.40;;
71965;SDS011;59836;52.132;5.442;2023-06-22T01:14:19;9.27;;;6.93;;
71965;SDS011;59836;52.132;5.442;2023-06-22T01:16:53;7.63;;;6.20;;
71965;SDS011;59836;52.132;5.442;2023-06-22T01:19:35;8.93;;;6.63;;
71965;SDS011;59836;52.132;5.442;2023-06-22T01:22:07;9.57;;;6.18;;
71965;SDS011;59836;52.132;5.442;2023-06-22T01:24:45;8.65;;;6.20;;
71965;SDS011;59836;52.132;5.442;2023-06-22T01:30:16;7.30;;;5.20;;
71965;SDS011;59836;52.132;5.442;2023-06-22T01:32:44;10.02;;;6.18;;
71965;SDS011;59836;52.132;5.442;2023-06-22T01:35:13;9.95;;;6.93;;
71965;SDS011;59836;52.132;5.442;2023-06-22T01:37:41;7.78;;;6.18;;
71965;SDS011;59836;52.132;5.442;2023-06-22T01:40:08;9.13;;;6.33;;
71965;SDS011;59836;52.132;5.442;2023-06-22T01:42:35;8.65;;;5.72;;
71965;SDS011;59836;52.132;5.442;2023-06-22T01:45:03;8.20;;;5.75;;
71965;SDS011;59836;52.132;5.442;2023-06-22T01:47:30;9.40;;;6.10;;
71965;SDS011;59836;52.132;5.442;2023-06-22T01:49:57;7.97;;;5.65;;
71965;SDS011;59836;52.132;5.442;2023-06-22T01:52:24;8.20;;;6.40;;
71965;SDS011;59836;52.132;5.442;2023-06-22T01:54:51;8.95;;;6.07;;
71965;SDS011;59836;52.132;5.442;2023-06-22T01:57:17;8.05;;;5.38;;
71965;SDS011;59836;52.132;5.442;2023-06-22T02:00:03;7.18;;;5.63;;
71965;SDS011;59836;52.132;5.442;2023-06-22T02:05:43;7.87;;;6.10;;
71965;SDS011;59836;52.132;5.442;2023-06-22T02:08:17;7.75;;;5.55;;
71965;SDS011;59836;52.132;5.442;2023-06-22T02:10:47;8.00;;;5.75;;
71965;SDS011;59836;52.132;5.442;2023-06-22T02:13:15;10.00;;;5.68;;
71965;SDS011;59836;52.132;5.442;2023-06-22T02:15:42;7.72;;;5.65;;
71965;SDS011;59836;52.132;5.442;2023-06-22T02:18:09;8.90;;;5.90;;
71965;SDS011;59836;52.132;5.442;2023-06-22T02:20:37;9.65;;;6.57;;
71965;SDS011;59836;52.132;5.442;2023-06-22T02:23:04;7.90;;;5.93;;
71965;SDS011;59836;52.132;5.442;2023-06-22T02:25:32;7.65;;;5.80;;
71965;SDS011;59836;52.132;5.442;2023-06-22T02:27:59;8.75;;;5.82;;
71965;SDS011;59836;52.132;5.442;2023-06-22T02:30:26;10.70;;;6.23;;
71965;SDS011;59836;52.132;5.442;2023-06-22T02:32:53;8.93;;;6.32;;
71965;SDS011;59836;52.132;5.442;2023-06-22T02:35:26;9.45;;;6.18;;
71965;SDS011;59836;52.132;5.442;2023-06-22T02:37:53;9.82;;;6.78;;
71965;SDS011;59836;52.132;5.442;2023-06-22T02:40:20;8.63;;;6.40;;
71965;SDS011;59836;52.132;5.442;2023-06-22T02:42:47;8.30;;;6.23;;
71965;SDS011;59836;52.132;5.442;2023-06-22T02:45:13;8.30;;;6.30;;
71965;SDS011;59836;52.132;5.442;2023-06-22T02:47:40;8.70;;;6.45;;
71965;SDS011;59836;52.132;5.442;2023-06-22T02:50:06;9.05;;;6.20;;
71965;SDS011;59836;52.132;5.442;2023-06-22T02:52:33;7.85;;;6.30;;
71965;SDS011;59836;52.132;5.442;2023-06-22T02:55:00;9.33;;;6.40;;
71965;SDS011;59836;52.132;5.442;2023-06-22T02:57:26;7.72;;;6.03;;
71965;SDS011;59836;52.132;5.442;2023-06-22T02:59:53;7.60;;;6.07;;
71965;SDS011;59836;52.132;5.442;2023-06-22T03:02:21;8.90;;;6.13;;
71965;SDS011;59836;52.132;5.442;2023-06-22T03:04:48;9.48;;;6.68;;
71965;SDS011;59836;52.132;5.442;2023-06-22T03:07:15;8.33;;;5.77;;
71965;SDS011;59836;52.132;5.442;2023-06-22T03:09:43;7.72;;;5.88;;
71965;SDS011;59836;52.132;5.442;2023-06-22T03:12:10;9.20;;;6.03;;
71965;SDS011;59836;52.132;5.442;2023-06-22T03:14:37;10.00;;;6.32;;
71965;SDS011;59836;52.132;5.442;2023-06-22T03:17:04;8.95;;;6.53;;
71965;SDS011;59836;52.132;5.442;2023-06-22T03:19:31;9.27;;;6.23;;
71965;SDS011;59836;52.132;5.442;2023-06-22T03:21:59;10.25;;;7.10;;
71965;SDS011;59836;52.132;5.442;2023-06-22T03:24:26;9.30;;;6.35;;
71965;SDS011;59836;52.132;5.442;2023-06-22T03:26:55;7.80;;;6.00;;
71965;SDS011;59836;52.132;5.442;2023-06-22T03:29:23;9.48;;;6.35;;
71965;SDS011;59836;52.132;5.442;2023-06-22T03:31:51;8.40;;;6.43;;
71965;SDS011;59836;52.132;5.442;2023-06-22T03:34:17;10.10;;;7.20;;
71965;SDS011;59836;52.132;5.442;2023-06-22T03:36:45;12.18;;;6.68;;
71965;SDS011;59836;52.132;5.442;2023-06-22T03:39:11;9.88;;;6.65;;
71965;SDS011;59836;52.132;5.442;2023-06-22T03:41:38;9.75;;;7.07;;
71965;SDS011;59836;52.132;5.442;2023-06-22T03:44:05;11.17;;;6.63;;
71965;SDS011;59836;52.132;5.442;2023-06-22T03:46:31;11.27;;;6.90;;
71965;SDS011;59836;52.132;5.442;2023-06-22T03:48:58;10.13;;;6.72;;
71965;SDS011;59836;52.132;5.442;2023-06-22T03:51:24;9.13;;;6.75;;
71965;SDS011;59836;52.132;5.442;2023-06-22T03:53:51;12.07;;;6.97;;
71965;SDS011;59836;52.132;5.442;2023-06-22T03:56:17;10.80;;;6.53;;
71965;SDS011;59836;52.132;5.442;2023-06-22T03:58:46;9.45;;;6.53;;
71965;SDS011;59836;52.132;5.442;2023-06-22T04:01:13;9.57;;;6.75;;
71965;SDS011;59836;52.132;5.442;2023-06-22T04:03:40;12.05;;;6.93;;
71965;SDS011;59836;52.132;5.442;2023-06-22T04:06:07;11.13;;;6.85;;
71965;SDS011;59836;52.132;5.442;2023-06-22T04:08:34;11.00;;;7.70;;
71965;SDS011;59836;52.132;5.442;2023-06-22T04:11:00;9.82;;;7.35;;
71965;SDS011;59836;52.132;5.442;2023-06-22T04:13:27;9.13;;;6.65;;
71965;SDS011;59836;52.132;5.442;2023-06-22T04:15:53;8.50;;;7.03;;
71965;SDS011;59836;52.132;5.442;2023-06-22T04:18:20;9.70;;;7.35;;
71965;SDS011;59836;52.132;5.442;2023-06-22T04:20:46;10.80;;;7.70;;
71965;SDS011;59836;52.132;5.442;2023-06-22T04:23:13;10.02;;;7.32;;
71965;SDS011;59836;52.132;5.442;2023-06-22T04:25:39;10.50;;;8.18;;
71965;SDS011;59836;52.132;5.442;2023-06-22T04:28:06;10.88;;;6.97;;
71965;SDS011;59836;52.132;5.442;2023-06-22T04:30:33;10.95;;;7.30;;
71965;SDS011;59836;52.132;5.442;2023-06-22T04:32:59;9.87;;;6.93;;
71965;SDS011;59836;52.132;5.442;2023-06-22T04:35:26;11.60;;;7.70;;
71965;SDS011;59836;52.132;5.442;2023-06-22T04:37:57;11.68;;;8.65;;
71965;SDS011;59836;52.132;5.442;2023-06-22T04:40:24;13.20;;;8.77;;
71965;SDS011;59836;52.132;5.442;2023-06-22T04:42:50;12.70;;;9.00;;
71965;SDS011;59836;52.132;5.442;2023-06-22T04:45:20;15.30;;;9.87;;
71965;SDS011;59836;52.132;5.442;2023-06-22T04:47:47;13.40;;;9.25;;
71965;SDS011;59836;52.132;5.442;2023-06-22T04:50:15;13.48;;;9.45;;
71965;SDS011;59836;52.132;5.442;2023-06-22T04:52:41;15.43;;;10.35;;
71965;SDS011;59836;52.132;5.442;2023-06-22T04:55:08;13.43;;;10.18;;
71965;SDS011;59836;52.132;5.442;2023-06-22T04:57:35;15.70;;;10.80;;
71965;SDS011;59836;52.132;5.442;2023-06-22T05:00:01;17.00;;;10.40;;
71965;SDS011;59836;52.132;5.442;2023-06-22T05:02:38;16.90;;;10.75;;
71965;SDS011;59836;52.132;5.442;2023-06-22T05:05:06;16.40;;;10.25;;
71965;SDS011;59836;52.132;5.442;2023-06-22T05:07:33;15.18;;;10.32;;
71965;SDS011;59836;52.132;5.442;2023-06-22T05:10:03;17.53;;;11.77;;
71965;SDS011;59836;52.132;5.442;2023-06-22T05:12:31;16.48;;;11.27;;
71965;SDS011;59836;52.132;5.442;2023-06-22T05:14:57;15.73;;;10.45;;
71965;SDS011;59836;52.132;5.442;2023-06-22T05:17:24;17.40;;;11.45;;
71965;SDS011;59836;52.132;5.442;2023-06-22T05:19:51;18.85;;;12.63;;
71965;SDS011;59836;52.132;5.442;2023-06-22T05:22:17;20.07;;;12.00;;
71965;SDS011;59836;52.132;5.442;2023-06-22T05:24:44;20.77;;;13.25;;
71965;SDS011;59836;52.132;5.442;2023-06-22T05:27:11;19.55;;;13.65;;
71965;SDS011;59836;52.132;5.442;2023-06-22T05:29:37;19.75;;;14.57;;
71965;SDS011;59836;52.132;5.442;2023-06-22T05:32:04;26.00;;;15.40;;
71965;SDS011;59836;52.132;5.442;2023-06-22T05:34:31;23.20;;;15.07;;
71965;SDS011;59836;52.132;5.442;2023-06-22T05:36:57;20.95;;;14.60;;
71965;SDS011;59836;52.132;5.442;2023-06-22T05:39:27;26.42;;;15.95;;
71965;SDS011;59836;52.132;5.442;2023-06-22T05:41:53;26.25;;;16.15;;
71965;SDS011;59836;52.132;5.442;2023-06-22T05:44:20;26.92;;;15.50;;
71965;SDS011;59836;52.132;5.442;2023-06-22T05:46:46;21.77;;;15.13;;
71965;SDS011;59836;52.132;5.442;2023-06-22T05:49:14;24.98;;;16.35;;
71965;SDS011;59836;52.132;5.442;2023-06-22T05:51:42;23.10;;;14.77;;
71965;SDS011;59836;52.132;5.442;2023-06-22T05:54:09;22.20;;;15.15;;
71965;SDS011;59836;52.132;5.442;2023-06-22T05:56:36;26.10;;;16.33;;
71965;SDS011;59836;52.132;5.442;2023-06-22T05:59:03;26.07;;;16.00;;
71965;SDS011;59836;52.132;5.442;2023-06-22T06:01:30;23.25;;;15.38;;
71965;SDS011;59836;52.132;5.442;2023-06-22T06:04:02;22.65;;;15.02;;
71965;SDS011;59836;52.132;5.442;2023-06-22T06:06:30;25.13;;;17.00;;
71965;SDS011;59836;52.132;5.442;2023-06-22T06:08:57;23.55;;;15.90;;
71965;SDS011;59836;52.132;5.442;2023-06-22T06:11:24;24.10;;;15.50;;
71965;SDS011;59836;52.132;5.442;2023-06-22T06:13:51;25.88;;;16.02;;
71965;SDS011;59836;52.132;5.442;2023-06-22T06:16:17;22.75;;;15.10;;
71965;SDS011;59836;52.132;5.442;2023-06-22T06:18:44;23.92;;;16.08;;
71965;SDS011;59836;52.132;5.442;2023-06-22T06:21:10;21.35;;;16.67;;
71965;SDS011;59836;52.132;5.442;2023-06-22T06:23:37;25.47;;;16.00;;
71965;SDS011;59836;52.132;5.442;2023-06-22T06:26:03;22.48;;;16.13;;
71965;SDS011;59836;52.132;5.442;2023-06-22T06:28:33;25.42;;;16.98;;
71965;SDS011;59836;52.132;5.442;2023-06-22T06:31:00;23.08;;;16.23;;
71965;SDS011;59836;52.132;5.442;2023-06-22T06:33:27;23.02;;;15.88;;
71965;SDS011;59836;52.132;5.442;2023-06-22T06:35:53;24.23;;;16.37;;
71965;SDS011;59836;52.132;5.442;2023-06-22T06:38:22;21.73;;;15.98;;
71965;SDS011;59836;52.132;5.442;2023-06-22T06:40:48;24.77;;;16.25;;
71965;SDS011;59836;52.132;5.442;2023-06-22T06:43:15;22.58;;;16.23;;
71965;SDS011;59836;52.132;5.442;2023-06-22T06:45:41;21.25;;;15.07;;
71965;SDS011;59836;52.132;5.442;2023-06-22T06:48:08;23.70;;;16.17;;
71965;SDS011;59836;52.132;5.442;2023-06-22T06:50:35;32.05;;;16.05;;
71965;SDS011;59836;52.132;5.442;2023-06-22T06:53:02;24.20;;;16.30;;
71965;SDS011;59836;52.132;5.442;2023-06-22T06:55:28;21.27;;;15.25;;
71965;SDS011;59836;52.132;5.442;2023-06-22T06:57:59;21.35;;;15.77;;
71965;SDS011;59836;52.132;5.442;2023-06-22T07:00:26;23.30;;;15.67;;
71965;SDS011;59836;52.132;5.442;2023-06-22T07:02:53;22.50;;;15.88;;
71965;SDS011;59836;52.132;5.442;2023-06-22T07:05:25;23.33;;;14.63;;
71965;SDS011;59836;52.132;5.442;2023-06-22T07:07:51;24.48;;;15.77;;
71965;SDS011;59836;52.132;5.442;2023-06-22T07:13:07;19.73;;;13.80;;
71965;SDS011;59836;52.132;5.442;2023-06-22T07:15:34;18.55;;;13.10;;
71965;SDS011;59836;52.132;5.442;2023-06-22T07:18:01;20.65;;;13.77;;
71965;SDS011;59836;52.132;5.442;2023-06-22T07:20:27;18.88;;;12.63;;
71965;SDS011;59836;52.132;5.442;2023-06-22T07:22:54;19.88;;;12.95;;
71965;SDS011;59836;52.132;5.442;2023-06-22T07:25:21;17.40;;;12.57;;
71965;SDS011;59836;52.132;5.442;2023-06-22T07:27:57;18.05;;;13.40;;
71965;SDS011;59836;52.132;5.442;2023-06-22T07:30:24;17.25;;;12.10;;
71965;SDS011;59836;52.132;5.442;2023-06-22T07:35:30;18.92;;;12.27;;
71965;SDS011;59836;52.132;5.442;2023-06-22T07:37:57;15.93;;;11.97;;
71965;SDS011;59836;52.132;5.442;2023-06-22T07:40:24;14.52;;;10.93;;
71965;SDS011;59836;52.132;5.442;2023-06-22T07:42:50;15.65;;;10.70;;
71965;SDS011;59836;52.132;5.442;2023-06-22T07:45:21;15.80;;;12.15;;
71965;SDS011;59836;52.132;5.442;2023-06-22T07:47:48;17.52;;;12.15;;
71965;SDS011;59836;52.132;5.442;2023-06-22T07:50:17;15.50;;;11.80;;
71965;SDS011;59836;52.132;5.442;2023-06-22T07:52:43;18.95;;;11.85;;
71965;SDS011;59836;52.132;5.442;2023-06-22T07:55:10;16.48;;;12.70;;
71965;SDS011;59836;52.132;5.442;2023-06-22T07:57:36;14.80;;;11.35;;
71965;SDS011;59836;52.132;5.442;2023-06-22T08:00:04;16.10;;;11.55;;
71965;SDS011;59836;52.132;5.442;2023-06-22T08:02:42;16.17;;;11.53;;
71965;SDS011;59836;52.132;5.442;2023-06-22T08:05:11;14.48;;;11.15;;
71965;SDS011;59836;52.132;5.442;2023-06-22T08:07:47;13.18;;;10.57;;
71965;SDS011;59836;52.132;5.442;2023-06-22T08:10:16;13.90;;;11.00;;
71965;SDS011;59836;52.132;5.442;2023-06-22T08:12:47;12.57;;;10.05;;
71965;SDS011;59836;52.132;5.442;2023-06-22T08:15:13;14.00;;;10.63;;
71965;SDS011;59836;52.132;5.442;2023-06-22T08:17:40;16.52;;;10.82;;
71965;SDS011;59836;52.132;5.442;2023-06-22T08:20:07;13.25;;;9.73;;
71965;SDS011;59836;52.132;5.442;2023-06-22T08:22:40;14.50;;;10.45;;
71965;SDS011;59836;52.132;5.442;2023-06-22T08:25:08;12.73;;;10.00;;
71965;SDS011;59836;52.132;5.442;2023-06-22T08:27:38;10.40;;;8.57;;
71965;SDS011;59836;52.132;5.442;2023-06-22T08:30:05;12.90;;;9.35;;
71965;SDS011;59836;52.132;5.442;2023-06-22T08:32:45;12.77;;;8.32;;
71965;SDS011;59836;52.132;5.442;2023-06-22T08:35:12;10.82;;;8.02;;
71965;SDS011;59836;52.132;5.442;2023-06-22T08:37:39;10.20;;;7.68;;
71965;SDS011;59836;52.132;5.442;2023-06-22T08:50:17;11.18;;;8.20;;
71965;SDS011;59836;52.132;5.442;2023-06-22T08:52:54;7.50;;;6.40;;
71965;SDS011;59836;52.132;5.442;2023-06-22T08:58:09;10.43;;;8.07;;
71965;SDS011;59836;52.132;5.442;2023-06-22T09:00:37;9.07;;;6.95;;
71965;SDS011;59836;52.132;5.442;2023-06-22T09:03:04;9.75;;;7.90;;
71965;SDS011;59836;52.132;5.442;2023-06-22T09:05:31;8.05;;;6.45;;
71965;SDS011;59836;52.132;5.442;2023-06-22T09:07:58;8.33;;;6.37;;
71965;SDS011;59836;52.132;5.442;2023-06-22T09:10:26;5.53;;;4.50;;
71965;SDS011;59836;52.132;5.442;2023-06-22T09:12:56;4.85;;;3.60;;
71965;SDS011;59836;52.132;5.442;2023-06-22T09:15:25;5.72;;;4.32;;
71965;SDS011;59836;52.132;5.442;2023-06-22T09:17:52;8.27;;;4.85;;
71965;SDS011;59836;52.132;5.442;2023-06-22T09:20:20;5.67;;;4.90;;
71965;SDS011;59836;52.132;5.442;2023-06-22T09:22:47;7.13;;;4.90;;
71965;SDS011;59836;52.132;5.442;2023-06-22T09:25:14;6.00;;;4.93;;
71965;SDS011;59836;52.132;5.442;2023-06-22T09:27:40;7.93;;;5.10;;
71965;SDS011;59836;52.132;5.442;2023-06-22T09:30:13;6.43;;;5.72;;
71965;SDS011;59836;52.132;5.442;2023-06-22T09:32:39;7.23;;;5.60;;
71965;SDS011;59836;52.132;5.442;2023-06-22T09:35:06;6.63;;;5.30;;
71965;SDS011;59836;52.132;5.442;2023-06-22T09:37:34;7.03;;;4.85;;
71965;SDS011;59836;52.132;5.442;2023-06-22T09:40:02;5.93;;;4.53;;
71965;SDS011;59836;52.132;5.442;2023-06-22T09:42:34;8.07;;;5.78;;
71965;SDS011;59836;52.132;5.442;2023-06-22T09:45:01;8.60;;;5.97;;
71965;SDS011;59836;52.132;5.442;2023-06-22T09:47:28;8.63;;;6.25;;
71965;SDS011;59836;52.132;5.442;2023-06-22T09:49:55;8.05;;;5.07;;
71965;SDS011;59836;52.132;5.442;2023-06-22T09:52:22;7.63;;;5.57;;
71965;SDS011;59836;52.132;5.442;2023-06-22T09:54:56;8.02;;;6.35;;
71965;SDS011;59836;52.132;5.442;2023-06-22T09:57:22;8.97;;;5.53;;
71965;SDS011;59836;52.132;5.442;2023-06-22T09:59:51;8.32;;;5.20;;
71965;SDS011;59836;52.132;5.442;2023-06-22T10:02:17;5.07;;;4.53;;
71965;SDS011;59836;52.132;5.442;2023-06-22T10:04:44;15.13;;;5.38;;
71965;SDS011;59836;52.132;5.442;2023-06-22T10:07:11;21.33;;;4.63;;
71965;SDS011;59836;52.132;5.442;2023-06-22T10:09:38;21.33;;;4.83;;
71965;SDS011;59836;52.132;5.442;2023-06-22T10:12:05;8.70;;;4.53;;
71965;SDS011;59836;52.132;5.442;2023-06-22T10:14:32;6.60;;;4.70;;
71965;SDS011;59836;52.132;5.442;2023-06-22T10:16:58;5.90;;;4.30;;
71965;SDS011;59836;52.132;5.442;2023-06-22T10:19:25;6.38;;;4.82;;
71965;SDS011;59836;52.132;5.442;2023-06-22T10:21:52;5.80;;;4.23;;
71965;SDS011;59836;52.132;5.442;2023-06-22T10:24:18;4.75;;;3.60;;
71965;SDS011;59836;52.132;5.442;2023-06-22T10:26:45;5.40;;;3.92;;
71965;SDS011;59836;52.132;5.442;2023-06-22T10:29:11;4.97;;;4.03;;
71965;SDS011;59836;52.132;5.442;2023-06-22T10:31:42;6.93;;;4.40;;
71965;SDS011;59836;52.132;5.442;2023-06-22T10:34:09;5.13;;;4.33;;
71965;SDS011;59836;52.132;5.442;2023-06-22T10:36:35;5.18;;;3.55;;
71965;SDS011;59836;52.132;5.442;2023-06-22T10:39:02;4.00;;;3.60;;
71965;SDS011;59836;52.132;5.442;2023-06-22T10:41:29;4.50;;;3.65;;
71965;SDS011;59836;52.132;5.442;2023-06-22T10:43:57;6.55;;;3.80;;
71965;SDS011;59836;52.132;5.442;2023-06-22T10:46:24;4.30;;;3.73;;
71965;SDS011;59836;52.132;5.442;2023-06-22T10:48:51;7.30;;;4.18;;
71965;SDS011;59836;52.132;5.442;2023-06-22T10:51:20;4.82;;;3.42;;
71965;SDS011;59836;52.132;5.442;2023-06-22T10:53:47;5.53;;;3.95;;
71965;SDS011;59836;52.132;5.442;2023-06-22T10:56:14;5.28;;;4.55;;
71965;SDS011;59836;52.132;5.442;2023-06-22T10:58:40;4.77;;;3.73;;
71965;SDS011;59836;52.132;5.442;2023-06-22T11:01:07;6.30;;;4.53;;
71965;SDS011;59836;52.132;5.442;2023-06-22T11:03:42;5.82;;;4.50;;
71965;SDS011;59836;52.132;5.442;2023-06-22T11:06:09;5.13;;;4.45;;
71965;SDS011;59836;52.132;5.442;2023-06-22T11:08:35;7.35;;;5.07;;
71965;SDS011;59836;52.132;5.442;2023-06-22T11:11:02;6.53;;;5.20;;
71965;SDS011;59836;52.132;5.442;2023-06-22T11:13:28;7.60;;;5.88;;
71965;SDS011;59836;52.132;5.442;2023-06-22T11:15:55;8.60;;;6.07;;
71965;SDS011;59836;52.132;5.442;2023-06-22T11:18:21;9.18;;;5.03;;
71965;SDS011;59836;52.132;5.442;2023-06-22T11:20:49;7.60;;;5.43;;
71965;SDS011;59836;52.132;5.442;2023-06-22T11:23:18;6.70;;;5.67;;
71965;SDS011;59836;52.132;5.442;2023-06-22T11:25:47;6.15;;;5.43;;
71965;SDS011;59836;52.132;5.442;2023-06-22T11:28:13;8.10;;;5.07;;
71965;SDS011;59836;52.132;5.442;2023-06-22T11:30:40;5.65;;;4.95;;
71965;SDS011;59836;52.132;5.442;2023-06-22T11:33:06;6.22;;;4.32;;
71965;SDS011;59836;52.132;5.442;2023-06-22T11:35:33;7.63;;;5.20;;
71965;SDS011;59836;52.132;5.442;2023-06-22T11:37:59;6.45;;;4.85;;
71965;SDS011;59836;52.132;5.442;2023-06-22T11:40:26;5.55;;;4.90;;
71965;SDS011;59836;52.132;5.442;2023-06-22T11:42:53;5.63;;;4.70;;
71965;SDS011;59836;52.132;5.442;2023-06-22T11:45:20;7.00;;;5.07;;
71965;SDS011;59836;52.132;5.442;2023-06-22T11:47:46;8.63;;;5.30;;
71965;SDS011;59836;52.132;5.442;2023-06-22T11:50:13;6.20;;;4.75;;
71965;SDS011;59836;52.132;5.442;2023-06-22T11:52:40;6.35;;;4.38;;
71965;SDS011;59836;52.132;5.442;2023-06-22T11:55:07;9.23;;;4.50;;
71965;SDS011;59836;52.132;5.442;2023-06-22T11:57:35;8.30;;;5.30;;
71965;SDS011;59836;52.132;5.442;2023-06-22T12:00:05;9.13;;;6.63;;
71965;SDS011;59836;52.132;5.442;2023-06-22T12:02:39;9.00;;;6.75;;
71965;SDS011;59836;52.132;5.442;2023-06-22T12:05:06;10.20;;;7.75;;
71965;SDS011;59836;52.132;5.442;2023-06-22T12:07:34;9.68;;;7.05;;
71965;SDS011;59836;52.132;5.442;2023-06-22T12:10:01;10.10;;;7.50;;
71965;SDS011;59836;52.132;5.442;2023-06-22T12:12:27;10.17;;;7.73;;
71965;SDS011;59836;52.132;5.442;2023-06-22T12:14:54;9.00;;;7.65;;
71965;SDS011;59836;52.132;5.442;2023-06-22T12:17:20;12.70;;;8.77;;
71965;SDS011;59836;52.132;5.442;2023-06-22T12:19:47;10.60;;;8.13;;
71965;SDS011;59836;52.132;5.442;2023-06-22T12:22:13;8.50;;;7.32;;
71965;SDS011;59836;52.132;5.442;2023-06-22T12:24:40;10.90;;;8.03;;
71965;SDS011;59836;52.132;5.442;2023-06-22T12:27:06;10.60;;;8.05;;
71965;SDS011;59836;52.132;5.442;2023-06-22T12:29:33;12.80;;;7.82;;
71965;SDS011;59836;52.132;5.442;2023-06-22T12:31:59;11.18;;;8.10;;
71965;SDS011;59836;52.132;5.442;2023-06-22T12:34:26;10.55;;;7.97;;
71965;SDS011;59836;52.132;5.442;2023-06-22T12:36:52;10.63;;;7.93;;
71965;SDS011;59836;52.132;5.442;2023-06-22T12:39:20;11.70;;;7.78;;
71965;SDS011;59836;52.132;5.442;2023-06-22T12:41:47;8.10;;;7.13;;
71965;SDS011;59836;52.132;5.442;2023-06-22T12:44:13;10.40;;;7.13;;
71965;SDS011;59836;52.132;5.442;2023-06-22T12:46:40;9.48;;;6.88;;
71965;SDS011;59836;52.132;5.442;2023-06-22T12:49:06;9.57;;;6.90;;
71965;SDS011;59836;52.132;5.442;2023-06-22T12:51:33;9.48;;;6.60;;
71965;SDS011;59836;52.132;5.442;2023-06-22T12:54:00;9.18;;;7.13;;
71965;SDS011;59836;52.132;5.442;2023-06-22T12:56:26;9.82;;;6.90;;
71965;SDS011;59836;52.132;5.442;2023-06-22T12:58:53;8.77;;;6.90;;
71965;SDS011;59836;52.132;5.442;2023-06-22T13:01:19;8.73;;;6.23;;
71965;SDS011;59836;52.132;5.442;2023-06-22T13:03:46;9.82;;;7.07;;
71965;SDS011;59836;52.132;5.442;2023-06-22T13:06:14;9.65;;;7.03;;
71965;SDS011;59836;52.132;5.442;2023-06-22T13:08:40;9.02;;;6.40;;
71965;SDS011;59836;52.132;5.442;2023-06-22T13:11:27;9.68;;;6.75;;
71965;SDS011;59836;52.132;5.442;2023-06-22T13:13:54;7.67;;;6.27;;
71965;SDS011;59836;52.132;5.442;2023-06-22T13:16:20;8.77;;;6.78;;
71965;SDS011;59836;52.132;5.442;2023-06-22T13:18:47;10.40;;;7.10;;
71965;SDS011;59836;52.132;5.442;2023-06-22T13:21:14;8.95;;;6.95;;
71965;SDS011;59836;52.132;5.442;2023-06-22T13:23:41;11.15;;;7.90;;
71965;SDS011;59836;52.132;5.442;2023-06-22T13:26:07;10.00;;;6.70;;
71965;SDS011;59836;52.132;5.442;2023-06-22T13:28:34;12.15;;;7.80;;
71965;SDS011;59836;52.132;5.442;2023-06-22T13:31:00;9.40;;;7.30;;
71965;SDS011;59836;52.132;5.442;2023-06-22T13:33:27;11.88;;;9.07;;
71965;SDS011;59836;52.132;5.442;2023-06-22T13:35:53;9.60;;;8.50;;
71965;SDS011;59836;52.132;5.442;2023-06-22T13:38:20;13.53;;;8.73;;
71965;SDS011;59836;52.132;5.442;2023-06-22T13:40:46;11.80;;;9.00;;
71965;SDS011;59836;52.132;5.442;2023-06-22T13:43:13;10.93;;;8.98;;
71965;SDS011;59836;52.132;5.442;2023-06-22T13:45:42;11.30;;;8.88;;
71965;SDS011;59836;52.132;5.442;2023-06-22T13:48:09;13.30;;;9.63;;
71965;SDS011;59836;52.132;5.442;2023-06-22T13:50:36;13.40;;;9.40;;
71965;SDS011;59836;52.132;5.442;2023-06-22T13:53:02;11.32;;;9.55;;
71965;SDS011;59836;52.132;5.442;2023-06-22T13:55:29;12.65;;;9.68;;
71965;SDS011;59836;52.132;5.442;2023-06-22T13:57:57;12.15;;;9.40;;
71965;SDS011;59836;52.132;5.442;2023-06-22T14:00:23;14.85;;;10.05;;
71965;SDS011;59836;52.132;5.442;2023-06-22T14:02:50;11.17;;;9.03;;
71965;SDS011;59836;52.132;5.442;2023-06-22T14:05:17;14.98;;;9.48;;
71965;SDS011;59836;52.132;5.442;2023-06-22T14:07:44;11.43;;;9.25;;
71965;SDS011;59836;52.132;5.442;2023-06-22T14:10:10;12.60;;;9.80;;
71965;SDS011;59836;52.132;5.442;2023-06-22T14:12:37;16.35;;;10.38;;
71965;SDS011;59836;52.132;5.442;2023-06-22T14:15:04;12.97;;;10.40;;
71965;SDS011;59836;52.132;5.442;2023-06-22T14:17:31;13.30;;;10.63;;
71965;SDS011;59836;52.132;5.442;2023-06-22T14:19:58;14.05;;;9.88;;
71965;SDS011;59836;52.132;5.442;2023-06-22T14:22:24;13.60;;;10.10;;
71965;SDS011;59836;52.132;5.442;2023-06-22T14:24:51;14.88;;;10.07;;
71965;SDS011;59836;52.132;5.442;2023-06-22T14:27:18;16.23;;;10.87;;
71965;SDS011;59836;52.132;5.442;2023-06-22T14:29:44;12.68;;;10.63;;
71965;SDS011;59836;52.132;5.442;2023-06-22T14:32:11;12.60;;;9.88;;
71965;SDS011;59836;52.132;5.442;2023-06-22T14:34:37;12.85;;;10.70;;
71965;SDS011;59836;52.132;5.442;2023-06-22T14:37:07;14.05;;;10.68;;
71965;SDS011;59836;52.132;5.442;2023-06-22T14:39:35;13.97;;;11.27;;
71965;SDS011;59836;52.132;5.442;2023-06-22T14:44:48;13.45;;;10.85;;
71965;SDS011;59836;52.132;5.442;2023-06-22T14:47:15;15.40;;;11.45;;
71965;SDS011;59836;52.132;5.442;2023-06-22T14:49:42;14.90;;;10.82;;
71965;SDS011;59836;52.132;5.442;2023-06-22T14:52:08;16.23;;;12.17;;
71965;SDS011;59836;52.132;5.442;2023-06-22T14:54:35;14.07;;;10.90;;
71965;SDS011;59836;52.132;5.442;2023-06-22T14:57:01;14.65;;;10.32;;
71965;SDS011;59836;52.132;5.442;2023-06-22T14:59:28;12.02;;;9.63;;
71965;SDS011;59836;52.132;5.442;2023-06-22T15:01:54;14.45;;;10.55;;
71965;SDS011;59836;52.132;5.442;2023-06-22T15:04:21;15.17;;;11.40;;
71965;SDS011;59836;52.132;5.442;2023-06-22T15:06:47;13.70;;;10.93;;
71965;SDS011;59836;52.132;5.442;2023-06-22T15:09:14;17.13;;;10.70;;